Search for airport 
image banner adimage banner adimage banner ad
image banner ad

5CL2 - St Louise Rgnl Hospital

Located in Gilroy, United States

ICAO - 5CL2, IATA -

Data provided by Airmate  

General information

Coordinates: N37°2'8" W121°34'16"
Elevation is 214 feet MSL.
Magnetic variation is 15° East
View others Airports in California

Operational data

Special qualification required
Current time UTC:
Current local time:
Weather at : KCVH - Hollister Muni ( 21 km )
METAR: KCVH 141235Z AUTO 00000KT 1/4SM FG OVC001 13/12 A3003 RMK A01
View NOTAMs / SUP AIP / TFR affecting this airport [VIEW]
Communications frequencies: [VIEW]

Runways:

Airport contact information

Address: Gilroy United States

Satellite view of 5CL2